createdAt,value
2022-07-28T10:03:08.100Z,963.44
2022-07-28T10:04:07.952Z,963.41
2022-07-28T10:05:07.961Z,963.39
2022-07-28T10:06:07.885Z,963.57
2022-07-28T10:07:07.894Z,963.42
2022-07-28T10:08:07.902Z,963.44
2022-07-28T10:09:07.973Z,963.40
2022-07-28T10:10:07.894Z,963.34
2022-07-28T10:11:07.833Z,963.37
2022-07-28T10:12:07.827Z,963.37
2022-07-28T10:13:07.811Z,963.40
2022-07-28T10:14:07.818Z,963.39
2022-07-28T10:15:07.839Z,963.45
2022-07-28T10:16:07.853Z,963.41
2022-07-28T10:17:07.765Z,963.36
2022-07-28T10:18:07.783Z,963.31
2022-07-28T10:19:08.154Z,963.37
2022-07-28T10:20:07.777Z,963.33
2022-07-28T10:21:07.737Z,963.35
2022-07-28T10:22:07.706Z,963.45
2022-07-28T10:23:07.747Z,963.28
2022-07-28T10:24:07.699Z,963.34
2022-07-28T10:25:07.690Z,963.33
2022-07-28T10:26:11.013Z,963.35
2022-07-28T10:27:08.648Z,963.33
2022-07-28T10:28:07.733Z,963.32
2022-07-28T10:29:07.714Z,963.32
2022-07-28T10:30:07.621Z,963.30
2022-07-28T10:31:07.706Z,963.38
2022-07-28T10:32:07.650Z,963.36
2022-07-28T10:33:07.647Z,963.29
2022-07-28T10:34:07.575Z,963.28
2022-07-28T10:35:07.650Z,963.31
2022-07-28T10:36:07.571Z,963.25
2022-07-28T10:37:07.583Z,963.24
2022-07-28T10:38:07.575Z,963.22
2022-07-28T10:39:07.594Z,963.24
2022-07-28T10:40:10.265Z,963.23
2022-07-28T10:41:07.509Z,963.23
2022-07-28T10:42:07.617Z,963.27
2022-07-28T10:43:07.515Z,963.29
2022-07-28T10:44:07.522Z,963.19
2022-07-28T10:45:07.524Z,963.23
2022-07-28T10:46:10.701Z,963.12
2022-07-28T10:47:08.523Z,963.14
2022-07-28T10:48:07.463Z,963.25
2022-07-28T10:49:09.809Z,963.25
2022-07-28T10:50:07.443Z,963.22
2022-07-28T10:51:07.387Z,963.15
2022-07-28T10:52:19.709Z,963.17
2022-07-28T10:53:08.436Z,963.18
2022-07-28T10:54:07.379Z,963.15
2022-07-28T10:55:07.389Z,963.10
2022-07-28T10:56:07.329Z,963.13
2022-07-28T10:57:07.333Z,963.15
2022-07-28T10:58:11.189Z,963.11
2022-07-28T10:59:07.337Z,963.14
2022-07-28T11:00:24.442Z,963.12
2022-07-28T11:01:10.671Z,963.14
2022-07-28T11:02:08.438Z,963.13
2022-07-28T11:03:13.320Z,963.09
2022-07-28T11:04:08.252Z,963.09
2022-07-28T11:05:07.263Z,963.07
2022-07-28T11:06:07.275Z,963.09
2022-07-28T11:07:07.229Z,963.22
2022-07-28T11:08:07.243Z,963.08
2022-07-28T11:09:07.288Z,963.09
2022-07-28T11:10:07.194Z,963.05
2022-07-28T11:11:09.006Z,963.15
2022-07-28T11:12:09.720Z,963.13
2022-07-28T11:13:07.235Z,963.16
2022-07-28T11:14:08.249Z,963.05
2022-07-28T11:15:18.410Z,963.13
2022-07-28T11:16:08.132Z,963.13
2022-07-28T11:17:10.572Z,963.12
2022-07-28T11:18:07.112Z,963.12
2022-07-28T11:19:07.883Z,963.05
2022-07-28T11:20:24.862Z,962.99
2022-07-28T11:21:08.525Z,963.05
2022-07-28T11:22:07.074Z,963.08
2022-07-28T11:23:07.064Z,962.98
2022-07-28T11:24:07.043Z,963.11
2022-07-28T11:25:18.521Z,963.06
2022-07-28T11:26:08.079Z,963.05
2022-07-28T11:27:07.007Z,963.17
2022-07-28T11:28:06.989Z,963.08
2022-07-28T11:29:07.016Z,963.04
2022-07-28T11:30:06.976Z,963.11
2022-07-28T11:31:07.049Z,963.04
2022-07-28T11:32:06.934Z,963.10
2022-07-28T11:33:07.003Z,963.08
2022-07-28T11:34:06.949Z,963.04
2022-07-28T11:35:06.920Z,963.04
2022-07-28T11:36:06.889Z,963.02
2022-07-28T11:37:06.879Z,962.96
2022-07-28T11:38:06.968Z,963.00
2022-07-28T11:39:06.897Z,962.95
2022-07-28T11:40:06.903Z,962.94
2022-07-28T11:41:06.867Z,962.89
2022-07-28T11:42:06.827Z,963.03
2022-07-28T11:43:06.867Z,963.00
2022-07-28T11:44:06.807Z,963.00
2022-07-28T11:45:06.811Z,962.99
2022-07-28T11:46:10.374Z,962.98
2022-07-28T11:47:06.789Z,963.03
2022-07-28T11:48:06.814Z,963.04
2022-07-28T11:49:06.837Z,963.04
2022-07-28T11:50:07.749Z,963.03
2022-07-28T11:51:06.810Z,963.00
2022-07-28T11:52:06.731Z,962.96
2022-07-28T11:53:06.743Z,962.97
2022-07-28T11:54:06.739Z,962.91
2022-07-28T11:55:06.689Z,962.94
2022-07-28T11:56:06.695Z,962.84
2022-07-28T11:57:06.665Z,962.83
2022-07-28T11:58:06.665Z,962.86
2022-07-28T11:59:06.680Z,962.86
2022-07-28T12:00:06.625Z,962.87
2022-07-28T12:01:06.652Z,962.82
2022-07-28T12:02:07.713Z,962.88
2022-07-28T12:03:06.607Z,962.87
2022-07-28T12:04:06.606Z,962.86
2022-07-28T12:05:06.660Z,962.86
2022-07-28T12:06:06.564Z,962.89
2022-07-28T12:07:06.628Z,962.82
2022-07-28T12:08:06.547Z,962.86
2022-07-28T12:09:06.548Z,962.88
2022-07-28T12:10:06.559Z,962.82
2022-07-28T12:11:06.505Z,962.84
2022-07-28T12:12:06.560Z,962.86
2022-07-28T12:13:06.507Z,962.80
2022-07-28T12:14:06.528Z,962.90
2022-07-28T12:15:07.525Z,962.82
2022-07-28T12:16:06.449Z,962.80
2022-07-28T12:17:06.526Z,962.81
2022-07-28T12:18:06.429Z,962.82
2022-07-28T12:19:06.437Z,962.87
2022-07-28T12:20:06.445Z,962.82
2022-07-28T12:21:07.447Z,962.78
2022-07-28T12:22:06.382Z,962.81
2022-07-28T12:23:06.373Z,962.79
2022-07-28T12:24:06.369Z,962.76
2022-07-28T12:25:06.387Z,962.71
2022-07-28T12:26:07.337Z,962.73
2022-07-28T12:27:06.394Z,962.71
2022-07-28T12:28:06.315Z,962.67
2022-07-28T12:29:08.389Z,962.68
2022-07-28T12:30:06.320Z,962.63
2022-07-28T12:31:06.335Z,962.70
2022-07-28T12:32:06.543Z,962.62
2022-07-28T12:33:06.262Z,962.66
2022-07-28T12:34:06.270Z,962.62
2022-07-28T12:35:06.256Z,962.65
2022-07-28T12:36:06.250Z,962.66
2022-07-28T12:37:06.265Z,962.64
2022-07-28T12:38:06.223Z,962.64
2022-07-28T12:39:10.831Z,962.65
2022-07-28T12:40:07.217Z,962.65
2022-07-28T12:41:06.183Z,962.63
2022-07-28T12:42:06.414Z,962.59
2022-07-28T12:43:06.169Z,962.66
2022-07-28T12:44:06.226Z,962.62
2022-07-28T12:45:06.127Z,962.61
2022-07-28T12:46:06.179Z,962.60
2022-07-28T12:47:06.293Z,962.66
2022-07-28T12:48:06.143Z,962.63
2022-07-28T12:49:06.161Z,962.62
2022-07-28T12:50:07.111Z,962.56
2022-07-28T12:51:06.168Z,962.58
2022-07-28T12:52:07.049Z,962.60
2022-07-28T12:53:06.071Z,962.57
2022-07-28T12:54:06.042Z,962.60
2022-07-28T12:55:06.046Z,962.62
2022-07-28T12:56:06.002Z,962.56
2022-07-28T12:57:06.103Z,962.58
2022-07-28T12:58:06.003Z,962.55
2022-07-28T12:59:05.972Z,962.57
2022-07-28T13:00:05.978Z,962.57
2022-07-28T13:01:06.042Z,962.48
2022-07-28T13:02:05.959Z,962.47
2022-07-28T13:03:05.989Z,962.47
2022-07-28T13:04:05.947Z,962.50
2022-07-28T13:05:06.046Z,962.45
2022-07-28T13:06:05.910Z,962.48
2022-07-28T13:07:05.879Z,962.46
2022-07-28T13:08:06.181Z,962.44
2022-07-28T13:09:05.892Z,962.45
2022-07-28T13:10:06.862Z,962.36
2022-07-28T13:11:09.807Z,962.42
2022-07-28T13:12:06.822Z,962.42
2022-07-28T13:13:05.813Z,962.40
2022-07-28T13:14:05.821Z,962.41
2022-07-28T13:15:05.809Z,962.38
2022-07-28T13:16:05.879Z,962.34
2022-07-28T13:17:05.857Z,962.34
2022-07-28T13:18:05.798Z,962.36
2022-07-28T13:19:05.922Z,962.35
2022-07-28T13:20:05.739Z,962.37
2022-07-28T13:21:05.759Z,962.30
2022-07-28T13:22:09.328Z,962.31
2022-07-28T13:23:05.730Z,962.33
2022-07-28T13:24:05.737Z,962.33
2022-07-28T13:25:05.681Z,962.31
2022-07-28T13:26:05.700Z,962.35
2022-07-28T13:27:05.702Z,962.28
2022-07-28T13:28:05.664Z,962.23
2022-07-28T13:29:12.844Z,962.27
2022-07-28T13:30:06.703Z,962.23
2022-07-28T13:31:05.763Z,962.23
2022-07-28T13:32:05.776Z,962.22
2022-07-28T13:33:08.300Z,962.24
2022-07-28T13:34:06.588Z,962.25
2022-07-28T13:35:05.611Z,962.22
2022-07-28T13:36:05.571Z,962.23
2022-07-28T13:37:05.617Z,962.19
2022-07-28T13:38:05.570Z,962.19
2022-07-28T13:39:05.534Z,962.20
2022-07-28T13:40:05.529Z,962.24
2022-07-28T13:41:05.501Z,962.23
2022-07-28T13:42:05.622Z,962.28
2022-07-28T13:43:05.664Z,962.27
2022-07-28T13:44:06.476Z,962.24
2022-07-28T13:45:05.517Z,962.27
2022-07-28T13:46:05.691Z,962.20
2022-07-28T13:47:05.648Z,962.24
2022-07-28T13:48:05.454Z,962.23
2022-07-28T13:49:05.538Z,962.23
2022-07-28T13:50:05.407Z,962.23
2022-07-28T13:51:05.408Z,962.23
2022-07-28T13:52:05.380Z,962.19
2022-07-28T13:53:06.701Z,962.24
2022-07-28T13:54:05.442Z,962.23
2022-07-28T13:55:05.384Z,962.23
2022-07-28T13:56:05.348Z,962.25
2022-07-28T13:57:05.342Z,962.24
2022-07-28T13:58:08.674Z,962.23
2022-07-28T13:59:07.370Z,962.15
2022-07-28T14:00:05.301Z,962.20
2022-07-28T14:01:06.124Z,962.20
2022-07-28T14:02:05.287Z,962.17
2022-07-28T14:03:08.461Z,962.23
2022-07-28T14:04:05.239Z,962.23
2022-07-28T14:05:05.255Z,962.17
2022-07-28T14:06:05.253Z,962.20
2022-07-28T14:07:05.217Z,962.15
2022-07-28T14:08:05.250Z,962.14
2022-07-28T14:09:05.185Z,962.17
2022-07-28T14:10:06.884Z,962.20
2022-07-28T14:11:05.176Z,962.20
2022-07-28T14:12:05.153Z,962.18
2022-07-28T14:13:05.193Z,962.14
2022-07-28T14:14:05.168Z,962.12
2022-07-28T14:15:05.119Z,962.11
2022-07-28T14:16:06.802Z,962.09
2022-07-28T14:17:25.799Z,962.03
2022-07-28T14:18:06.107Z,962.02
2022-07-28T14:19:05.618Z,962.01
2022-07-28T14:20:05.139Z,962.09
2022-07-28T14:21:05.051Z,962.06
2022-07-28T14:22:07.890Z,962.05
2022-07-28T14:23:06.095Z,962.01
2022-07-28T14:24:05.031Z,961.93
2022-07-28T14:25:05.029Z,962.00
2022-07-28T14:26:33.154Z,962.00
2022-07-28T14:27:06.000Z,962.03
2022-07-28T14:28:05.045Z,962.03
2022-07-28T14:29:04.961Z,961.99
2022-07-28T14:30:05.953Z,962.03
2022-07-28T14:31:04.953Z,962.04
2022-07-28T14:32:04.934Z,961.95
2022-07-28T14:33:04.974Z,961.98
2022-07-28T14:34:04.928Z,961.95
2022-07-28T14:35:04.902Z,961.95
2022-07-28T14:36:04.904Z,961.93
2022-07-28T14:37:08.457Z,961.92
2022-07-28T14:38:42.367Z,961.92
2022-07-28T14:39:10.546Z,961.92
2022-07-28T14:40:05.855Z,961.87
2022-07-28T14:41:04.839Z,961.87
2022-07-28T14:42:04.884Z,961.90
2022-07-28T14:43:04.857Z,961.91
2022-07-28T14:44:04.800Z,961.95
2022-07-28T14:45:04.805Z,961.89
2022-07-28T14:46:16.196Z,961.88
2022-07-28T14:47:05.846Z,961.90
2022-07-28T14:48:04.750Z,961.92
2022-07-28T14:49:04.859Z,961.95
2022-07-28T14:50:04.752Z,961.99
2022-07-28T14:51:04.738Z,961.91
2022-07-28T14:52:04.752Z,961.99
2022-07-28T14:53:04.717Z,961.95
2022-07-28T14:54:04.689Z,961.87
2022-07-28T14:55:04.685Z,961.87
2022-07-28T14:56:04.690Z,961.79
2022-07-28T14:57:04.804Z,961.92
2022-07-28T14:58:04.663Z,961.90
2022-07-28T14:59:04.708Z,961.88
2022-07-28T15:00:04.668Z,961.89
2022-07-28T15:01:04.667Z,961.87
2022-07-28T15:02:04.737Z,961.84
2022-07-28T15:03:04.749Z,961.84
2022-07-28T15:04:04.598Z,961.84
2022-07-28T15:05:04.626Z,961.86
2022-07-28T15:06:04.557Z,961.83
2022-07-28T15:07:04.614Z,961.83
2022-07-28T15:08:04.595Z,961.76
2022-07-28T15:09:04.654Z,961.76
2022-07-28T15:10:04.542Z,961.79
2022-07-28T15:11:04.501Z,961.88
2022-07-28T15:12:04.493Z,961.84
2022-07-28T15:13:04.562Z,961.73
2022-07-28T15:14:04.599Z,961.72
2022-07-28T15:15:04.475Z,961.68
2022-07-28T15:16:04.503Z,961.69
2022-07-28T15:17:04.455Z,961.72
2022-07-28T15:18:04.447Z,961.77
2022-07-28T15:19:04.562Z,961.77
2022-07-28T15:20:05.161Z,961.75
2022-07-28T15:21:04.415Z,961.70
2022-07-28T15:22:04.415Z,961.58
2022-07-28T15:23:04.374Z,961.59
2022-07-28T15:24:04.427Z,961.56
2022-07-28T15:25:04.436Z,961.59
2022-07-28T15:26:04.362Z,961.58
2022-07-28T15:27:04.342Z,961.60
2022-07-28T15:28:04.368Z,961.60
2022-07-28T15:29:04.447Z,961.63
2022-07-28T15:30:04.340Z,961.58
2022-07-28T15:31:05.471Z,961.57
2022-07-28T15:32:04.524Z,961.65
2022-07-28T15:33:04.285Z,961.58
2022-07-28T15:34:04.304Z,961.57
2022-07-28T15:35:04.250Z,961.59
2022-07-28T15:36:04.260Z,961.55
2022-07-28T15:37:04.232Z,961.61
2022-07-28T15:38:04.232Z,961.56
2022-07-28T15:39:04.276Z,961.59
2022-07-28T15:40:04.258Z,961.60
2022-07-28T15:41:04.192Z,961.56
2022-07-28T15:42:04.195Z,961.61
2022-07-28T15:43:04.208Z,961.66
2022-07-28T15:44:04.164Z,961.60
2022-07-28T15:45:04.200Z,961.64
2022-07-28T15:46:04.216Z,961.65
2022-07-28T15:47:04.170Z,961.60
2022-07-28T15:48:04.121Z,961.57
2022-07-28T15:49:04.247Z,961.60
2022-07-28T15:50:04.113Z,961.52
2022-07-28T15:51:04.149Z,961.54
2022-07-28T15:52:04.071Z,961.53
2022-07-28T15:53:04.101Z,961.55
2022-07-28T15:54:04.073Z,961.48
2022-07-28T15:55:04.035Z,961.48
2022-07-28T15:56:04.094Z,961.44
2022-07-28T15:57:04.060Z,961.49
2022-07-28T15:58:03.996Z,961.46
2022-07-28T15:59:03.981Z,961.45
2022-07-28T16:00:04.061Z,961.50
2022-07-28T16:01:03.986Z,961.51
2022-07-28T16:02:04.048Z,961.51
2022-07-28T16:03:04.071Z,961.52
2022-07-28T16:04:03.949Z,961.51
2022-07-28T16:05:03.914Z,961.51
2022-07-28T16:06:03.930Z,961.48
2022-07-28T16:07:03.916Z,961.45
2022-07-28T16:08:03.939Z,961.44
2022-07-28T16:09:03.888Z,961.44
2022-07-28T16:10:03.888Z,961.42
2022-07-28T16:11:03.856Z,961.37
2022-07-28T16:12:03.848Z,961.34
2022-07-28T16:13:03.832Z,961.33
2022-07-28T16:14:03.876Z,961.39
2022-07-28T16:15:03.805Z,961.44
2022-07-28T16:16:03.844Z,961.42
2022-07-28T16:17:03.823Z,961.43
2022-07-28T16:18:03.794Z,961.45
2022-07-28T16:19:03.794Z,961.45
2022-07-28T16:20:03.810Z,961.41
2022-07-28T16:21:03.738Z,961.39
2022-07-28T16:22:03.733Z,961.42
2022-07-28T16:23:03.713Z,961.39
2022-07-28T16:24:03.719Z,961.36
2022-07-28T16:25:03.736Z,961.35
2022-07-28T16:26:03.681Z,961.36
2022-07-28T16:27:03.668Z,961.28
2022-07-28T16:28:03.672Z,961.29
2022-07-28T16:29:03.686Z,961.28
2022-07-28T16:30:03.675Z,961.27
2022-07-28T16:31:03.689Z,961.31
2022-07-28T16:32:03.761Z,961.32
2022-07-28T16:33:03.625Z,961.26
2022-07-28T16:34:03.608Z,961.25
2022-07-28T16:35:03.607Z,961.25
2022-07-28T16:36:03.633Z,961.24
2022-07-28T16:37:05.079Z,961.25
2022-07-28T16:38:03.625Z,961.31
2022-07-28T16:39:03.537Z,961.33
2022-07-28T16:40:03.540Z,961.39
2022-07-28T16:41:03.542Z,961.33
2022-07-28T16:42:03.566Z,961.34
2022-07-28T16:43:03.561Z,961.36
2022-07-28T16:44:03.495Z,961.41
2022-07-28T16:45:03.523Z,961.36
2022-07-28T16:46:03.528Z,961.43
2022-07-28T16:47:03.481Z,961.37
2022-07-28T16:48:03.881Z,961.40
2022-07-28T16:49:03.579Z,961.36
2022-07-28T16:50:03.480Z,961.37
2022-07-28T16:51:03.423Z,961.39
2022-07-28T16:52:03.416Z,961.40
2022-07-28T16:53:03.419Z,961.44
2022-07-28T16:54:03.372Z,961.48
2022-07-28T16:55:03.447Z,961.55
2022-07-28T16:56:03.353Z,961.49
2022-07-28T16:57:03.346Z,961.46
2022-07-28T16:58:03.394Z,961.43
2022-07-28T16:59:03.312Z,961.44
2022-07-28T17:00:03.311Z,961.43
2022-07-28T17:01:03.294Z,961.50
2022-07-28T17:02:03.368Z,961.45
2022-07-28T17:03:03.292Z,961.47
2022-07-28T17:04:03.479Z,961.45
2022-07-28T17:05:03.352Z,961.45
2022-07-28T17:06:03.362Z,961.41
2022-07-28T17:07:03.259Z,961.44
2022-07-28T17:08:03.231Z,961.39
2022-07-28T17:09:03.251Z,961.40
2022-07-28T17:10:03.214Z,961.39
2022-07-28T17:11:03.229Z,961.34
2022-07-28T17:12:03.375Z,961.35
2022-07-28T17:13:03.194Z,961.43
2022-07-28T17:14:03.161Z,961.41
2022-07-28T17:15:03.177Z,961.45
2022-07-28T17:16:03.280Z,961.43
2022-07-28T17:17:03.181Z,961.43
2022-07-28T17:18:03.151Z,961.45
2022-07-28T17:19:03.137Z,961.45
2022-07-28T17:20:03.165Z,961.40
2022-07-28T17:21:03.140Z,961.40
2022-07-28T17:22:03.107Z,961.38
2022-07-28T17:23:03.114Z,961.37
2022-07-28T17:24:03.116Z,961.40
2022-07-28T17:25:03.073Z,961.38
2022-07-28T17:27:36.525Z,961.38
2022-07-28T17:28:04.020Z,961.41
2022-07-28T17:29:03.039Z,961.41
2022-07-28T17:30:03.027Z,961.43
2022-07-28T17:31:03.121Z,961.45
2022-07-28T17:32:02.981Z,961.45
2022-07-28T17:33:08.428Z,961.45
2022-07-28T17:34:03.960Z,961.44
2022-07-28T17:35:03.314Z,961.44
2022-07-28T17:36:02.959Z,961.52
2022-07-28T17:37:02.898Z,961.49
2022-07-28T17:38:02.896Z,961.53
2022-07-28T17:39:02.875Z,961.51
2022-07-28T17:40:04.656Z,961.55
2022-07-28T17:41:02.941Z,961.58
2022-07-28T17:42:02.841Z,961.56
2022-07-28T17:43:02.850Z,961.60
2022-07-28T17:44:02.832Z,961.56
2022-07-28T17:45:02.811Z,961.59
2022-07-28T17:46:08.123Z,961.58
2022-07-28T17:47:03.811Z,961.57
2022-07-28T17:48:02.770Z,961.59
2022-07-28T17:49:02.812Z,961.59
2022-07-28T17:50:02.790Z,961.66
2022-07-28T17:51:02.732Z,961.65
2022-07-28T17:52:02.788Z,961.65
2022-07-28T17:53:02.768Z,961.64
2022-07-28T17:54:02.713Z,961.68
2022-07-28T17:55:02.724Z,961.70
2022-07-28T17:56:02.711Z,961.73
2022-07-28T17:57:02.737Z,961.77
2022-07-28T17:58:02.660Z,961.75
2022-07-28T17:59:02.742Z,961.76
2022-07-28T18:00:02.651Z,961.86
2022-07-28T18:01:10.913Z,961.79
2022-07-28T18:02:03.738Z,961.79
2022-07-28T18:03:02.699Z,961.82
2022-07-28T18:04:03.643Z,961.79
2022-07-28T18:05:02.589Z,961.83
2022-07-28T18:06:02.596Z,961.83
2022-07-28T18:07:02.564Z,961.87
2022-07-28T18:08:02.566Z,961.85
2022-07-28T18:09:05.729Z,961.90
2022-07-28T18:10:02.574Z,961.85
2022-07-28T18:11:02.524Z,961.90
2022-07-28T18:12:02.518Z,961.90
2022-07-28T18:13:02.536Z,961.93
2022-07-28T18:14:03.808Z,961.93
2022-07-28T18:15:02.486Z,961.89
2022-07-28T18:16:02.670Z,961.91
2022-07-28T18:17:02.468Z,961.96
2022-07-28T18:18:02.455Z,961.98
2022-07-28T18:19:02.429Z,961.96
2022-07-28T18:20:02.502Z,962.00
2022-07-28T18:21:02.416Z,961.97
2022-07-28T18:22:02.428Z,961.99
2022-07-28T18:23:02.425Z,962.03
2022-07-28T18:24:02.406Z,962.04
2022-07-28T18:25:02.408Z,962.07
2022-07-28T18:26:02.349Z,962.04
2022-07-28T18:27:02.351Z,962.03
2022-07-28T18:28:02.369Z,962.03
2022-07-28T18:29:02.347Z,962.03
2022-07-28T18:30:02.402Z,962.01
2022-07-28T18:31:02.371Z,962.07
2022-07-28T18:32:02.286Z,962.07
2022-07-28T18:33:02.268Z,962.03
2022-07-28T18:34:02.308Z,962.07
2022-07-28T18:35:02.285Z,962.06
2022-07-28T18:36:02.304Z,962.09
2022-07-28T18:37:02.232Z,962.09
2022-07-28T18:38:02.290Z,962.11
2022-07-28T18:39:02.206Z,962.14
2022-07-28T18:40:02.215Z,962.12
2022-07-28T18:41:02.182Z,962.13
2022-07-28T18:42:02.171Z,962.16
2022-07-28T18:43:02.198Z,962.12
2022-07-28T18:44:02.183Z,962.13
2022-07-28T18:45:02.180Z,962.16
2022-07-28T18:46:02.214Z,962.13
2022-07-28T18:47:02.158Z,962.15
2022-07-28T18:48:02.107Z,962.14
2022-07-28T18:49:02.170Z,962.12
2022-07-28T18:50:02.105Z,962.08
2022-07-28T18:51:02.094Z,962.08
2022-07-28T18:52:02.100Z,962.05
2022-07-28T18:53:02.098Z,962.10
2022-07-28T18:54:02.040Z,962.08
2022-07-28T18:55:02.035Z,962.09
2022-07-28T18:56:02.021Z,962.08
2022-07-28T18:57:02.057Z,962.08
2022-07-28T18:58:02.036Z,962.08
2022-07-28T18:59:01.982Z,962.07
2022-07-28T19:00:01.975Z,962.09
2022-07-28T19:01:02.001Z,962.06
2022-07-28T19:02:02.028Z,962.08
2022-07-28T19:03:02.090Z,962.08
2022-07-28T19:04:02.095Z,962.07
2022-07-28T19:05:01.918Z,962.09
2022-07-28T19:06:01.906Z,962.12
2022-07-28T19:07:01.920Z,962.14
2022-07-28T19:08:01.936Z,962.15
2022-07-28T19:09:01.901Z,962.12
2022-07-28T19:10:01.862Z,962.15
2022-07-28T19:11:01.915Z,962.17
2022-07-28T19:12:01.861Z,962.17
2022-07-28T19:13:01.841Z,962.16
2022-07-28T19:14:01.848Z,962.15
2022-07-28T19:15:01.846Z,962.15
2022-07-28T19:16:01.877Z,962.19
2022-07-28T19:17:01.789Z,962.28
2022-07-28T19:18:10.115Z,962.20
2022-07-28T19:19:02.800Z,962.20
2022-07-28T19:20:01.802Z,962.20
2022-07-28T19:21:01.786Z,962.23
2022-07-28T19:22:01.728Z,962.25
2022-07-28T19:23:05.133Z,962.30
2022-07-28T19:24:01.737Z,962.32
2022-07-28T19:25:01.709Z,962.31
2022-07-28T19:26:01.733Z,962.39
2022-07-28T19:27:01.812Z,962.33
2022-07-28T19:28:01.658Z,962.30
2022-07-28T19:29:01.671Z,962.33
2022-07-28T19:30:01.641Z,962.29
2022-07-28T19:31:10.130Z,962.33
2022-07-28T19:32:02.667Z,962.33
2022-07-28T19:33:01.607Z,962.32
2022-07-28T19:34:01.591Z,962.35
2022-07-28T19:35:01.601Z,962.42
2022-07-28T19:36:01.581Z,962.37
2022-07-28T19:37:01.613Z,962.41
2022-07-28T19:38:01.545Z,962.42
2022-07-28T19:39:01.542Z,962.41
2022-07-28T19:40:01.572Z,962.41
2022-07-28T19:41:01.538Z,962.38
2022-07-28T19:42:01.515Z,962.38
2022-07-28T19:43:01.527Z,962.41
2022-07-28T19:44:01.478Z,962.37
2022-07-28T19:45:01.578Z,962.36
2022-07-28T19:46:01.564Z,962.41
2022-07-28T19:47:01.494Z,962.41
2022-07-28T19:48:01.448Z,962.40
2022-07-28T19:49:01.537Z,962.38
2022-07-28T19:50:01.469Z,962.40
2022-07-28T19:51:01.405Z,962.36
2022-07-28T19:52:01.416Z,962.38
2022-07-28T19:53:01.427Z,962.37
2022-07-28T19:54:01.387Z,962.38
2022-07-28T19:55:01.356Z,962.37
2022-07-28T19:56:01.416Z,962.39
2022-07-28T19:57:01.345Z,962.35
2022-07-28T19:58:02.338Z,962.34
2022-07-28T19:59:01.356Z,962.38
2022-07-28T20:00:01.303Z,962.33
2022-07-28T20:01:01.341Z,962.34
2022-07-28T20:02:01.342Z,962.39
2022-07-28T20:04:00.053Z,962.36
2022-07-28T20:04:05.133Z,962.36
2022-07-28T20:05:01.267Z,962.36
2022-07-28T20:06:01.231Z,962.39
2022-07-28T20:07:01.224Z,962.36
2022-07-28T20:08:01.212Z,962.40
2022-07-28T20:09:01.233Z,962.39
2022-07-28T20:10:01.234Z,962.42
2022-07-28T20:11:01.201Z,962.43
2022-07-28T20:12:01.210Z,962.41
2022-07-28T20:13:01.175Z,962.42
2022-07-28T20:14:01.156Z,962.43
2022-07-28T20:15:01.143Z,962.39
2022-07-28T20:16:01.132Z,962.39
2022-07-28T20:17:01.331Z,962.40
2022-07-28T20:18:01.097Z,962.35
2022-07-28T20:19:01.094Z,962.36
2022-07-28T20:20:01.096Z,962.38
2022-07-28T20:21:01.076Z,962.36
2022-07-28T20:22:01.083Z,962.37
2022-07-28T20:23:01.090Z,962.44
2022-07-28T20:24:01.029Z,962.43
2022-07-28T20:25:01.030Z,962.45
2022-07-28T20:26:01.012Z,962.42
2022-07-28T20:27:01.026Z,962.43
2022-07-28T20:28:01.013Z,962.47
2022-07-28T20:29:01.026Z,962.48
2022-07-28T20:30:00.961Z,962.48
2022-07-28T20:31:01.049Z,962.47
2022-07-28T20:32:00.961Z,962.45
2022-07-28T20:33:00.989Z,962.49
2022-07-28T20:34:00.917Z,962.48
2022-07-28T20:35:00.907Z,962.50
2022-07-28T20:36:00.900Z,962.53
2022-07-28T20:37:00.884Z,962.51
2022-07-28T20:38:00.914Z,962.56
2022-07-28T20:39:00.895Z,962.53
2022-07-28T20:40:00.853Z,962.56
2022-07-28T20:41:00.841Z,962.56
2022-07-28T20:42:01.839Z,962.56
2022-07-28T20:43:00.838Z,962.56
2022-07-28T20:44:27.336Z,962.57
2022-07-28T20:45:01.797Z,962.54
2022-07-28T20:46:00.891Z,962.58
2022-07-28T20:47:00.863Z,962.59
2022-07-28T20:48:00.778Z,962.61
2022-07-28T20:49:00.856Z,962.59
2022-07-28T20:50:00.782Z,962.61
2022-07-28T20:51:00.728Z,962.55
2022-07-28T20:52:00.731Z,962.57
2022-07-28T20:53:00.709Z,962.60
2022-07-28T20:54:01.714Z,962.62
2022-07-28T20:55:00.731Z,962.58
2022-07-28T20:56:00.696Z,962.62
2022-07-28T20:57:00.665Z,962.67
2022-07-28T20:58:00.649Z,962.70
2022-07-28T20:59:06.604Z,962.64
2022-07-28T21:00:01.654Z,962.67
2022-07-28T21:01:00.702Z,962.64
2022-07-28T21:02:00.734Z,962.66
2022-07-28T21:03:00.628Z,962.68
2022-07-28T21:04:00.580Z,962.65
2022-07-28T21:05:00.588Z,962.71
2022-07-28T21:06:00.572Z,962.69
2022-07-28T21:07:02.251Z,962.72
2022-07-28T21:08:06.447Z,962.70
2022-07-28T21:09:01.545Z,962.70
2022-07-28T21:10:00.522Z,962.68
2022-07-28T21:11:00.509Z,962.69
2022-07-28T21:12:00.516Z,962.67
2022-07-28T21:13:00.541Z,962.64
2022-07-28T21:14:00.470Z,962.66
2022-07-28T21:15:00.467Z,962.67
2022-07-28T21:16:00.460Z,962.72
2022-07-28T21:17:00.507Z,962.68
2022-07-28T21:18:00.448Z,962.71
2022-07-28T21:19:00.461Z,962.74
2022-07-28T21:20:00.414Z,962.78
2022-07-28T21:21:00.397Z,962.80
2022-07-28T21:22:00.403Z,962.82
2022-07-28T21:23:00.388Z,962.83
2022-07-28T21:24:00.391Z,962.80
2022-07-28T21:25:00.399Z,962.83
2022-07-28T21:26:00.365Z,962.83
2022-07-28T21:27:00.331Z,962.85
2022-07-28T21:28:00.316Z,962.83
2022-07-28T21:29:00.345Z,962.86
2022-07-28T21:30:00.296Z,962.87
2022-07-28T21:31:00.300Z,962.91
2022-07-28T21:32:04.170Z,962.96
2022-07-28T21:33:01.370Z,962.97
2022-07-28T21:34:00.259Z,962.97
2022-07-28T21:35:00.265Z,963.00
2022-07-28T21:36:00.268Z,963.04
2022-07-28T21:37:00.215Z,963.07
2022-07-28T21:38:00.202Z,963.13
2022-07-28T21:39:00.190Z,963.21
2022-07-28T21:40:00.218Z,963.21
2022-07-28T21:41:00.201Z,963.27
2022-07-28T21:42:00.212Z,963.24
2022-07-28T21:43:00.145Z,963.33
2022-07-28T21:44:04.014Z,963.36
2022-07-28T21:45:00.141Z,963.37
2022-07-28T21:46:00.291Z,963.40
2022-07-28T21:47:00.102Z,963.51
2022-07-28T21:48:00.143Z,963.56
2022-07-28T21:49:00.176Z,963.65
2022-07-28T21:50:00.091Z,963.71
2022-07-28T21:51:00.090Z,963.84
2022-07-28T21:52:00.176Z,963.81
2022-07-28T21:53:00.078Z,963.83
2022-07-28T21:54:00.055Z,963.82
2022-07-28T21:55:00.017Z,963.87
2022-07-28T21:56:00.002Z,963.83
2022-07-28T21:56:59.995Z,963.85
2022-07-28T21:57:59.980Z,963.89
2022-07-28T21:59:00.026Z,963.97
2022-07-28T21:59:59.955Z,963.91
2022-07-28T22:01:02.810Z,963.89
2022-07-28T22:01:59.941Z,963.99
2022-07-28T22:03:00.208Z,964.05
2022-07-28T22:03:59.956Z,964.00
2022-07-28T22:05:00.038Z,963.99
2022-07-28T22:05:59.888Z,963.97
2022-07-28T22:06:59.882Z,963.98
2022-07-28T22:07:59.879Z,963.97
2022-07-28T22:08:59.881Z,964.02
2022-07-28T22:09:59.889Z,964.07
2022-07-28T22:10:59.831Z,964.06
2022-07-28T22:11:59.830Z,964.06
2022-07-28T22:12:59.816Z,964.04
2022-07-28T22:13:59.849Z,964.07
2022-07-28T22:14:59.824Z,964.11
2022-07-28T22:15:59.772Z,964.03
2022-07-28T22:16:59.806Z,964.05
2022-07-28T22:17:59.777Z,964.06
2022-07-28T22:18:59.787Z,964.09
2022-07-28T22:19:59.747Z,964.09
2022-07-28T22:20:59.766Z,964.03
2022-07-28T22:21:59.740Z,964.02
2022-07-28T22:22:59.740Z,964.04
2022-07-28T22:23:59.684Z,964.03
2022-07-28T22:24:59.714Z,964.04
2022-07-28T22:25:59.662Z,964.05
2022-07-28T22:26:59.651Z,964.09
2022-07-28T22:27:59.639Z,964.08
2022-07-28T22:28:59.639Z,964.10
2022-07-28T22:29:59.658Z,964.10
2022-07-28T22:31:08.903Z,964.18
2022-07-28T22:32:00.619Z,964.20